KPGD

Punta Gorda Airport

Punta Gorda, Florida, USA
METAR KPGD 230953Z 07004KT 10SM CLR 19/17 A3008 RMK AO2 SLP185 T01890167
Observed Flight Rules
Oct-23 @ 09:53 UTC (9 minutes ago) Visual Flight Rules
Wind Visibility Clouds
70° at 4 knots 10 miles
  • Clear skies
Temperatures Readings
Current 19°C / 66°F
Dewpoint 17°C / 63°F
Humidity 88%
Altimeter 30.08" Hg
Pressure 1018.5 hPa
Elevation 7
METAR KPGD 230953Z 07004KT 10SM CLR 19/17 A3008 RMK AO2 SLP185 T01890167
Observed Flight Rules
Oct-23 @ 09:53 UTC
(9 minutes ago)
VFR
Wind Visibility
70° at 4 knots 10 miles
Clouds
  • Clear skies
Temperature Dewpoint
19°C / 66°F 17°C / 63°F
Humidity Altimeter Pressure
88% 30.08" Hg 1018.5 hPa